sensor_id;sensor_type;location;lat;lon;timestamp;P1;durP1;ratioP1;P2;durP2;ratioP2
49029;SDS011;43337;52.070;4.508;2022-12-20T00:01:39;7.63;;;3.08;;
49029;SDS011;43337;52.070;4.508;2022-12-20T00:04:04;5.47;;;2.78;;
49029;SDS011;43337;52.070;4.508;2022-12-20T00:06:30;8.18;;;2.55;;
49029;SDS011;43337;52.070;4.508;2022-12-20T00:08:56;7.35;;;2.83;;
49029;SDS011;43337;52.070;4.508;2022-12-20T00:11:24;11.65;;;3.20;;
49029;SDS011;43337;52.070;4.508;2022-12-20T00:13:50;7.25;;;2.67;;
49029;SDS011;43337;52.070;4.508;2022-12-20T00:16:19;8.15;;;2.42;;
49029;SDS011;43337;52.070;4.508;2022-12-20T00:18:49;6.40;;;2.22;;
49029;SDS011;43337;52.070;4.508;2022-12-20T00:21:16;7.38;;;2.58;;
49029;SDS011;43337;52.070;4.508;2022-12-20T00:23:42;5.30;;;2.38;;
49029;SDS011;43337;52.070;4.508;2022-12-20T00:26:09;5.88;;;2.53;;
49029;SDS011;43337;52.070;4.508;2022-12-20T00:28:36;7.63;;;2.92;;
49029;SDS011;43337;52.070;4.508;2022-12-20T00:31:04;5.93;;;2.45;;
49029;SDS011;43337;52.070;4.508;2022-12-20T00:33:29;6.50;;;3.28;;
49029;SDS011;43337;52.070;4.508;2022-12-20T00:35:57;8.15;;;2.95;;
49029;SDS011;43337;52.070;4.508;2022-12-20T00:38:23;6.78;;;2.80;;
49029;SDS011;43337;52.070;4.508;2022-12-20T00:41:06;6.07;;;3.20;;
49029;SDS011;43337;52.070;4.508;2022-12-20T00:43:39;6.15;;;2.92;;
49029;SDS011;43337;52.070;4.508;2022-12-20T00:46:05;7.20;;;2.85;;
49029;SDS011;43337;52.070;4.508;2022-12-20T00:48:33;5.50;;;2.85;;
49029;SDS011;43337;52.070;4.508;2022-12-20T00:50:59;6.13;;;2.80;;
49029;SDS011;43337;52.070;4.508;2022-12-20T00:53:26;6.93;;;3.08;;
49029;SDS011;43337;52.070;4.508;2022-12-20T00:55:52;6.00;;;2.75;;
49029;SDS011;43337;52.070;4.508;2022-12-20T00:58:18;5.85;;;2.63;;
49029;SDS011;43337;52.070;4.508;2022-12-20T01:00:43;7.22;;;3.03;;
49029;SDS011;43337;52.070;4.508;2022-12-20T01:03:09;6.45;;;2.80;;
49029;SDS011;43337;52.070;4.508;2022-12-20T01:05:34;7.68;;;3.30;;
49029;SDS011;43337;52.070;4.508;2022-12-20T01:08:00;8.40;;;3.00;;
49029;SDS011;43337;52.070;4.508;2022-12-20T01:10:25;10.00;;;3.53;;
49029;SDS011;43337;52.070;4.508;2022-12-20T01:12:51;7.18;;;3.20;;
49029;SDS011;43337;52.070;4.508;2022-12-20T01:15:17;7.25;;;3.00;;
49029;SDS011;43337;52.070;4.508;2022-12-20T01:17:43;7.78;;;3.33;;
49029;SDS011;43337;52.070;4.508;2022-12-20T01:20:08;6.20;;;3.10;;
49029;SDS011;43337;52.070;4.508;2022-12-20T01:22:34;5.80;;;2.80;;
49029;SDS011;43337;52.070;4.508;2022-12-20T01:25:01;5.70;;;2.70;;
49029;SDS011;43337;52.070;4.508;2022-12-20T01:27:26;5.43;;;3.13;;
49029;SDS011;43337;52.070;4.508;2022-12-20T01:29:53;7.82;;;3.10;;
49029;SDS011;43337;52.070;4.508;2022-12-20T01:32:19;6.70;;;2.90;;
49029;SDS011;43337;52.070;4.508;2022-12-20T01:34:45;11.38;;;3.53;;
49029;SDS011;43337;52.070;4.508;2022-12-20T01:37:10;6.32;;;2.92;;
49029;SDS011;43337;52.070;4.508;2022-12-20T01:39:36;8.52;;;3.15;;
49029;SDS011;43337;52.070;4.508;2022-12-20T01:42:01;7.72;;;3.17;;
49029;SDS011;43337;52.070;4.508;2022-12-20T01:46:52;5.78;;;2.50;;
49029;SDS011;43337;52.070;4.508;2022-12-20T01:49:20;6.90;;;2.63;;
49029;SDS011;43337;52.070;4.508;2022-12-20T01:51:57;5.55;;;2.50;;
49029;SDS011;43337;52.070;4.508;2022-12-20T01:56:59;5.80;;;2.88;;
49029;SDS011;43337;52.070;4.508;2022-12-20T01:59:28;9.90;;;3.67;;
49029;SDS011;43337;52.070;4.508;2022-12-20T02:01:58;6.70;;;3.33;;
49029;SDS011;43337;52.070;4.508;2022-12-20T02:04:28;8.32;;;3.47;;
49029;SDS011;43337;52.070;4.508;2022-12-20T02:06:54;7.95;;;3.67;;
49029;SDS011;43337;52.070;4.508;2022-12-20T02:09:20;11.18;;;3.03;;
49029;SDS011;43337;52.070;4.508;2022-12-20T02:17:09;6.45;;;3.05;;
49029;SDS011;43337;52.070;4.508;2022-12-20T02:28:03;7.97;;;3.38;;
49029;SDS011;43337;52.070;4.508;2022-12-20T02:30:47;9.10;;;3.20;;
49029;SDS011;43337;52.070;4.508;2022-12-20T02:33:16;6.57;;;3.40;;
49029;SDS011;43337;52.070;4.508;2022-12-20T02:35:44;7.35;;;3.25;;
49029;SDS011;43337;52.070;4.508;2022-12-20T02:41:10;6.45;;;3.25;;
49029;SDS011;43337;52.070;4.508;2022-12-20T02:43:57;9.50;;;3.25;;
49029;SDS011;43337;52.070;4.508;2022-12-20T02:46:45;6.10;;;3.05;;
49029;SDS011;43337;52.070;4.508;2022-12-20T02:49:14;9.75;;;3.10;;
49029;SDS011;43337;52.070;4.508;2022-12-20T02:51:45;7.80;;;3.58;;
49029;SDS011;43337;52.070;4.508;2022-12-20T02:54:13;6.28;;;3.38;;
49029;SDS011;43337;52.070;4.508;2022-12-20T02:56:49;8.98;;;3.20;;
49029;SDS011;43337;52.070;4.508;2022-12-20T02:59:24;8.77;;;3.90;;
49029;SDS011;43337;52.070;4.508;2022-12-20T03:01:54;7.63;;;3.50;;
49029;SDS011;43337;52.070;4.508;2022-12-20T03:04:21;7.68;;;3.30;;
49029;SDS011;43337;52.070;4.508;2022-12-20T03:09:25;6.22;;;3.42;;
49029;SDS011;43337;52.070;4.508;2022-12-20T03:11:50;7.40;;;3.47;;
49029;SDS011;43337;52.070;4.508;2022-12-20T03:14:17;5.65;;;3.08;;
49029;SDS011;43337;52.070;4.508;2022-12-20T03:16:42;6.93;;;3.08;;
49029;SDS011;43337;52.070;4.508;2022-12-20T03:19:08;7.10;;;3.22;;
49029;SDS011;43337;52.070;4.508;2022-12-20T03:21:33;5.60;;;3.67;;
49029;SDS011;43337;52.070;4.508;2022-12-20T03:23:58;5.47;;;3.22;;
49029;SDS011;43337;52.070;4.508;2022-12-20T03:26:24;6.25;;;2.88;;
49029;SDS011;43337;52.070;4.508;2022-12-20T03:28:49;7.35;;;2.90;;
49029;SDS011;43337;52.070;4.508;2022-12-20T03:31:15;5.20;;;2.90;;
49029;SDS011;43337;52.070;4.508;2022-12-20T03:33:40;6.82;;;2.78;;
49029;SDS011;43337;52.070;4.508;2022-12-20T03:36:06;7.07;;;3.15;;
49029;SDS011;43337;52.070;4.508;2022-12-20T03:38:31;9.63;;;2.88;;
49029;SDS011;43337;52.070;4.508;2022-12-20T03:40:57;5.10;;;2.50;;
49029;SDS011;43337;52.070;4.508;2022-12-20T03:43:22;8.07;;;2.53;;
49029;SDS011;43337;52.070;4.508;2022-12-20T03:45:47;5.63;;;2.50;;
49029;SDS011;43337;52.070;4.508;2022-12-20T03:48:13;6.68;;;2.70;;
49029;SDS011;43337;52.070;4.508;2022-12-20T03:50:38;5.63;;;2.88;;
49029;SDS011;43337;52.070;4.508;2022-12-20T03:53:04;6.60;;;2.42;;
49029;SDS011;43337;52.070;4.508;2022-12-20T03:55:30;4.88;;;2.75;;
49029;SDS011;43337;52.070;4.508;2022-12-20T03:57:56;5.40;;;2.38;;
49029;SDS011;43337;52.070;4.508;2022-12-20T04:00:21;5.57;;;2.60;;
49029;SDS011;43337;52.070;4.508;2022-12-20T04:02:47;5.28;;;2.60;;
49029;SDS011;43337;52.070;4.508;2022-12-20T04:05:12;5.47;;;2.58;;
49029;SDS011;43337;52.070;4.508;2022-12-20T04:07:37;4.55;;;2.58;;
49029;SDS011;43337;52.070;4.508;2022-12-20T04:10:03;8.32;;;2.78;;
49029;SDS011;43337;52.070;4.508;2022-12-20T04:12:29;6.78;;;2.63;;
49029;SDS011;43337;52.070;4.508;2022-12-20T04:14:54;9.52;;;2.90;;
49029;SDS011;43337;52.070;4.508;2022-12-20T04:17:19;5.50;;;2.90;;
49029;SDS011;43337;52.070;4.508;2022-12-20T04:19:45;5.80;;;2.92;;
49029;SDS011;43337;52.070;4.508;2022-12-20T04:22:10;7.47;;;2.85;;
49029;SDS011;43337;52.070;4.508;2022-12-20T04:24:35;6.13;;;2.60;;
49029;SDS011;43337;52.070;4.508;2022-12-20T04:27:02;6.70;;;2.63;;
49029;SDS011;43337;52.070;4.508;2022-12-20T04:29:27;6.85;;;2.90;;
49029;SDS011;43337;52.070;4.508;2022-12-20T04:31:53;7.82;;;3.22;;
49029;SDS011;43337;52.070;4.508;2022-12-20T04:34:19;5.50;;;3.03;;
49029;SDS011;43337;52.070;4.508;2022-12-20T04:36:44;8.55;;;2.78;;
49029;SDS011;43337;52.070;4.508;2022-12-20T04:39:09;6.95;;;3.20;;
49029;SDS011;43337;52.070;4.508;2022-12-20T04:41:35;10.63;;;3.38;;
49029;SDS011;43337;52.070;4.508;2022-12-20T04:44:00;10.73;;;3.38;;
49029;SDS011;43337;52.070;4.508;2022-12-20T04:46:26;8.55;;;3.35;;
49029;SDS011;43337;52.070;4.508;2022-12-20T04:48:51;7.70;;;3.25;;
49029;SDS011;43337;52.070;4.508;2022-12-20T04:51:17;10.80;;;3.72;;
49029;SDS011;43337;52.070;4.508;2022-12-20T04:53:43;5.63;;;2.83;;
49029;SDS011;43337;52.070;4.508;2022-12-20T04:56:11;9.27;;;3.30;;
49029;SDS011;43337;52.070;4.508;2022-12-20T04:58:38;6.28;;;2.95;;
49029;SDS011;43337;52.070;4.508;2022-12-20T05:01:03;6.55;;;2.45;;
49029;SDS011;43337;52.070;4.508;2022-12-20T05:03:29;6.10;;;3.10;;
49029;SDS011;43337;52.070;4.508;2022-12-20T05:05:54;5.90;;;2.83;;
49029;SDS011;43337;52.070;4.508;2022-12-20T05:08:19;8.13;;;3.10;;
49029;SDS011;43337;52.070;4.508;2022-12-20T05:10:45;7.68;;;2.90;;
49029;SDS011;43337;52.070;4.508;2022-12-20T05:13:11;8.82;;;3.08;;
49029;SDS011;43337;52.070;4.508;2022-12-20T05:15:37;7.65;;;2.63;;
49029;SDS011;43337;52.070;4.508;2022-12-20T05:18:02;6.53;;;3.00;;
49029;SDS011;43337;52.070;4.508;2022-12-20T05:20:28;6.53;;;2.83;;
49029;SDS011;43337;52.070;4.508;2022-12-20T05:22:55;6.50;;;3.03;;
49029;SDS011;43337;52.070;4.508;2022-12-20T05:25:40;6.28;;;2.80;;
49029;SDS011;43337;52.070;4.508;2022-12-20T05:28:34;5.43;;;2.47;;
49029;SDS011;43337;52.070;4.508;2022-12-20T05:31:00;5.30;;;2.50;;
49029;SDS011;43337;52.070;4.508;2022-12-20T05:33:26;6.90;;;2.63;;
49029;SDS011;43337;52.070;4.508;2022-12-20T05:35:52;5.45;;;2.78;;
49029;SDS011;43337;52.070;4.508;2022-12-20T05:38:19;7.28;;;3.10;;
49029;SDS011;43337;52.070;4.508;2022-12-20T05:40:46;5.35;;;2.63;;
49029;SDS011;43337;52.070;4.508;2022-12-20T05:43:13;8.77;;;3.67;;
49029;SDS011;43337;52.070;4.508;2022-12-20T05:45:39;6.97;;;3.17;;
49029;SDS011;43337;52.070;4.508;2022-12-20T05:48:09;6.18;;;2.83;;
49029;SDS011;43337;52.070;4.508;2022-12-20T05:50:34;8.68;;;2.67;;
49029;SDS011;43337;52.070;4.508;2022-12-20T05:52:59;4.88;;;2.42;;
49029;SDS011;43337;52.070;4.508;2022-12-20T05:55:25;5.43;;;2.50;;
49029;SDS011;43337;52.070;4.508;2022-12-20T05:57:50;5.43;;;3.08;;
49029;SDS011;43337;52.070;4.508;2022-12-20T06:00:15;7.65;;;3.25;;
49029;SDS011;43337;52.070;4.508;2022-12-20T06:02:41;5.20;;;2.75;;
49029;SDS011;43337;52.070;4.508;2022-12-20T06:05:07;7.90;;;3.17;;
49029;SDS011;43337;52.070;4.508;2022-12-20T06:07:32;8.95;;;3.22;;
49029;SDS011;43337;52.070;4.508;2022-12-20T06:09:58;7.38;;;3.65;;
49029;SDS011;43337;52.070;4.508;2022-12-20T06:12:23;8.23;;;3.08;;
49029;SDS011;43337;52.070;4.508;2022-12-20T06:14:49;9.00;;;2.90;;
49029;SDS011;43337;52.070;4.508;2022-12-20T06:17:15;7.18;;;2.95;;
49029;SDS011;43337;52.070;4.508;2022-12-20T06:19:40;5.47;;;2.97;;
49029;SDS011;43337;52.070;4.508;2022-12-20T06:22:06;10.82;;;2.63;;
49029;SDS011;43337;52.070;4.508;2022-12-20T06:24:33;6.85;;;3.03;;
49029;SDS011;43337;52.070;4.508;2022-12-20T06:26:59;5.85;;;2.80;;
49029;SDS011;43337;52.070;4.508;2022-12-20T06:29:24;10.25;;;3.45;;
49029;SDS011;43337;52.070;4.508;2022-12-20T06:31:50;8.85;;;3.17;;
49029;SDS011;43337;52.070;4.508;2022-12-20T06:34:16;6.40;;;2.85;;
49029;SDS011;43337;52.070;4.508;2022-12-20T06:36:41;6.32;;;2.65;;
49029;SDS011;43337;52.070;4.508;2022-12-20T06:39:07;5.47;;;2.55;;
49029;SDS011;43337;52.070;4.508;2022-12-20T06:41:33;6.65;;;2.72;;
49029;SDS011;43337;52.070;4.508;2022-12-20T06:43:59;6.38;;;2.67;;
49029;SDS011;43337;52.070;4.508;2022-12-20T06:46:25;4.57;;;2.50;;
49029;SDS011;43337;52.070;4.508;2022-12-20T06:48:51;6.85;;;2.65;;
49029;SDS011;43337;52.070;4.508;2022-12-20T06:51:16;5.90;;;2.85;;
49029;SDS011;43337;52.070;4.508;2022-12-20T06:53:42;8.00;;;3.45;;
49029;SDS011;43337;52.070;4.508;2022-12-20T06:56:07;9.25;;;2.88;;
49029;SDS011;43337;52.070;4.508;2022-12-20T06:58:33;6.05;;;2.28;;
49029;SDS011;43337;52.070;4.508;2022-12-20T07:00:58;7.43;;;3.17;;
49029;SDS011;43337;52.070;4.508;2022-12-20T07:03:24;7.50;;;2.38;;
49029;SDS011;43337;52.070;4.508;2022-12-20T07:05:50;4.53;;;2.30;;
49029;SDS011;43337;52.070;4.508;2022-12-20T07:08:17;6.32;;;2.58;;
49029;SDS011;43337;52.070;4.508;2022-12-20T07:10:43;5.38;;;2.63;;
49029;SDS011;43337;52.070;4.508;2022-12-20T07:13:09;6.95;;;2.50;;
49029;SDS011;43337;52.070;4.508;2022-12-20T07:15:34;6.60;;;2.20;;
49029;SDS011;43337;52.070;4.508;2022-12-20T07:17:59;7.32;;;2.28;;
49029;SDS011;43337;52.070;4.508;2022-12-20T07:20:25;5.45;;;1.90;;
49029;SDS011;43337;52.070;4.508;2022-12-20T07:22:51;8.90;;;2.88;;
49029;SDS011;43337;52.070;4.508;2022-12-20T07:25:16;5.05;;;1.88;;
49029;SDS011;43337;52.070;4.508;2022-12-20T07:27:42;5.57;;;2.13;;
49029;SDS011;43337;52.070;4.508;2022-12-20T07:30:07;7.00;;;2.20;;
49029;SDS011;43337;52.070;4.508;2022-12-20T07:32:33;5.38;;;2.30;;
49029;SDS011;43337;52.070;4.508;2022-12-20T07:34:58;6.65;;;2.25;;
49029;SDS011;43337;52.070;4.508;2022-12-20T07:37:27;7.82;;;2.22;;
49029;SDS011;43337;52.070;4.508;2022-12-20T07:39:53;6.85;;;2.60;;
49029;SDS011;43337;52.070;4.508;2022-12-20T07:42:18;5.47;;;2.22;;
49029;SDS011;43337;52.070;4.508;2022-12-20T07:44:43;4.93;;;2.20;;
49029;SDS011;43337;52.070;4.508;2022-12-20T07:47:09;12.85;;;4.20;;
49029;SDS011;43337;52.070;4.508;2022-12-20T07:49:34;8.80;;;2.10;;
49029;SDS011;43337;52.070;4.508;2022-12-20T07:52:00;6.75;;;3.08;;
49029;SDS011;43337;52.070;4.508;2022-12-20T07:54:30;7.80;;;2.13;;
49029;SDS011;43337;52.070;4.508;2022-12-20T07:57:01;9.18;;;3.17;;
49029;SDS011;43337;52.070;4.508;2022-12-20T07:59:34;6.55;;;2.42;;
49029;SDS011;43337;52.070;4.508;2022-12-20T08:02:03;5.72;;;2.47;;
49029;SDS011;43337;52.070;4.508;2022-12-20T08:04:30;7.57;;;2.58;;
49029;SDS011;43337;52.070;4.508;2022-12-20T08:06:57;6.30;;;2.55;;
49029;SDS011;43337;52.070;4.508;2022-12-20T08:09:25;12.55;;;3.22;;
49029;SDS011;43337;52.070;4.508;2022-12-20T08:11:55;6.53;;;3.17;;
49029;SDS011;43337;52.070;4.508;2022-12-20T08:14:23;5.60;;;2.25;;
49029;SDS011;43337;52.070;4.508;2022-12-20T08:16:48;7.78;;;2.60;;
49029;SDS011;43337;52.070;4.508;2022-12-20T08:19:14;5.43;;;2.20;;
49029;SDS011;43337;52.070;4.508;2022-12-20T08:21:40;7.15;;;2.65;;
49029;SDS011;43337;52.070;4.508;2022-12-20T08:24:05;6.55;;;2.38;;
49029;SDS011;43337;52.070;4.508;2022-12-20T08:26:35;6.63;;;2.50;;
49029;SDS011;43337;52.070;4.508;2022-12-20T08:29:02;10.73;;;2.90;;
49029;SDS011;43337;52.070;4.508;2022-12-20T08:31:27;8.30;;;2.67;;
49029;SDS011;43337;52.070;4.508;2022-12-20T08:33:53;7.25;;;2.85;;
49029;SDS011;43337;52.070;4.508;2022-12-20T08:36:18;5.68;;;2.42;;
49029;SDS011;43337;52.070;4.508;2022-12-20T08:38:44;7.47;;;2.38;;
49029;SDS011;43337;52.070;4.508;2022-12-20T08:41:10;6.15;;;2.20;;
49029;SDS011;43337;52.070;4.508;2022-12-20T08:43:37;6.68;;;2.38;;
49029;SDS011;43337;52.070;4.508;2022-12-20T08:46:04;4.85;;;2.10;;
49029;SDS011;43337;52.070;4.508;2022-12-20T08:48:31;6.93;;;2.63;;
49029;SDS011;43337;52.070;4.508;2022-12-20T08:50:57;7.68;;;2.10;;
49029;SDS011;43337;52.070;4.508;2022-12-20T08:53:28;6.75;;;2.45;;
49029;SDS011;43337;52.070;4.508;2022-12-20T08:56:02;8.70;;;2.20;;
49029;SDS011;43337;52.070;4.508;2022-12-20T08:58:31;9.98;;;3.10;;
49029;SDS011;43337;52.070;4.508;2022-12-20T09:00:58;10.45;;;2.65;;
49029;SDS011;43337;52.070;4.508;2022-12-20T09:03:30;5.95;;;2.33;;
49029;SDS011;43337;52.070;4.508;2022-12-20T09:05:57;5.80;;;2.45;;
49029;SDS011;43337;52.070;4.508;2022-12-20T09:08:23;7.35;;;2.30;;
49029;SDS011;43337;52.070;4.508;2022-12-20T09:10:49;6.85;;;2.33;;
49029;SDS011;43337;52.070;4.508;2022-12-20T09:13:15;7.55;;;2.65;;
49029;SDS011;43337;52.070;4.508;2022-12-20T09:15:40;10.98;;;3.13;;
49029;SDS011;43337;52.070;4.508;2022-12-20T09:18:06;7.78;;;2.80;;
49029;SDS011;43337;52.070;4.508;2022-12-20T09:20:32;9.82;;;2.55;;
49029;SDS011;43337;52.070;4.508;2022-12-20T09:22:58;10.80;;;2.58;;
49029;SDS011;43337;52.070;4.508;2022-12-20T09:25:24;6.40;;;2.30;;
49029;SDS011;43337;52.070;4.508;2022-12-20T09:27:52;6.13;;;2.42;;
49029;SDS011;43337;52.070;4.508;2022-12-20T09:30:19;8.05;;;3.05;;
49029;SDS011;43337;52.070;4.508;2022-12-20T09:32:44;6.15;;;2.83;;
49029;SDS011;43337;52.070;4.508;2022-12-20T09:35:10;8.88;;;2.75;;
49029;SDS011;43337;52.070;4.508;2022-12-20T09:37:35;6.10;;;2.72;;
49029;SDS011;43337;52.070;4.508;2022-12-20T09:40:01;6.50;;;2.72;;
49029;SDS011;43337;52.070;4.508;2022-12-20T09:42:26;5.72;;;2.50;;
49029;SDS011;43337;52.070;4.508;2022-12-20T09:44:55;12.25;;;3.40;;
49029;SDS011;43337;52.070;4.508;2022-12-20T09:47:26;6.20;;;2.95;;
49029;SDS011;43337;52.070;4.508;2022-12-20T09:49:52;8.65;;;2.63;;
49029;SDS011;43337;52.070;4.508;2022-12-20T10:01:09;6.95;;;2.40;;
49029;SDS011;43337;52.070;4.508;2022-12-20T10:03:38;6.13;;;2.25;;
49029;SDS011;43337;52.070;4.508;2022-12-20T10:06:07;6.78;;;2.58;;
49029;SDS011;43337;52.070;4.508;2022-12-20T10:08:50;11.50;;;3.40;;
49029;SDS011;43337;52.070;4.508;2022-12-20T10:11:27;9.18;;;3.10;;
49029;SDS011;43337;52.070;4.508;2022-12-20T10:14:02;7.93;;;2.85;;
49029;SDS011;43337;52.070;4.508;2022-12-20T10:16:53;5.68;;;2.53;;
49029;SDS011;43337;52.070;4.508;2022-12-20T10:25:23;7.57;;;3.42;;
49029;SDS011;43337;52.070;4.508;2022-12-20T10:27:54;7.15;;;3.05;;
49029;SDS011;43337;52.070;4.508;2022-12-20T10:30:22;6.90;;;3.05;;
49029;SDS011;43337;52.070;4.508;2022-12-20T10:32:49;10.30;;;3.38;;
49029;SDS011;43337;52.070;4.508;2022-12-20T10:35:23;6.68;;;2.90;;
49029;SDS011;43337;52.070;4.508;2022-12-20T10:38:02;9.15;;;2.65;;
49029;SDS011;43337;52.070;4.508;2022-12-20T10:40:37;15.32;;;3.70;;
49029;SDS011;43337;52.070;4.508;2022-12-20T10:43:04;7.30;;;3.03;;
49029;SDS011;43337;52.070;4.508;2022-12-20T10:45:34;6.55;;;3.17;;
49029;SDS011;43337;52.070;4.508;2022-12-20T10:48:06;8.95;;;3.65;;
49029;SDS011;43337;52.070;4.508;2022-12-20T10:50:58;7.97;;;3.20;;
49029;SDS011;43337;52.070;4.508;2022-12-20T10:53:58;6.57;;;3.25;;
49029;SDS011;43337;52.070;4.508;2022-12-20T10:56:26;8.75;;;3.13;;
49029;SDS011;43337;52.070;4.508;2022-12-20T10:58:57;8.10;;;3.80;;
49029;SDS011;43337;52.070;4.508;2022-12-20T11:01:30;9.13;;;3.40;;
49029;SDS011;43337;52.070;4.508;2022-12-20T11:03:59;10.02;;;3.65;;
49029;SDS011;43337;52.070;4.508;2022-12-20T11:06:28;8.57;;;3.42;;
49029;SDS011;43337;52.070;4.508;2022-12-20T11:12:04;7.47;;;3.95;;
49029;SDS011;43337;52.070;4.508;2022-12-20T11:14:43;12.07;;;4.32;;
49029;SDS011;43337;52.070;4.508;2022-12-20T11:17:18;8.68;;;3.85;;
49029;SDS011;43337;52.070;4.508;2022-12-20T11:20:00;7.78;;;4.05;;
49029;SDS011;43337;52.070;4.508;2022-12-20T11:25:26;9.95;;;4.40;;
49029;SDS011;43337;52.070;4.508;2022-12-20T11:33:15;9.02;;;4.40;;
49029;SDS011;43337;52.070;4.508;2022-12-20T11:36:16;10.82;;;4.55;;
49029;SDS011;43337;52.070;4.508;2022-12-20T11:39:12;9.80;;;4.65;;
49029;SDS011;43337;52.070;4.508;2022-12-20T11:52:59;12.73;;;5.53;;
49029;SDS011;43337;52.070;4.508;2022-12-20T11:55:33;10.25;;;5.15;;
49029;SDS011;43337;52.070;4.508;2022-12-20T11:58:03;11.93;;;5.20;;
49029;SDS011;43337;52.070;4.508;2022-12-20T12:00:36;8.68;;;5.30;;
49029;SDS011;43337;52.070;4.508;2022-12-20T12:03:08;11.05;;;5.72;;
49029;SDS011;43337;52.070;4.508;2022-12-20T12:05:45;11.40;;;5.78;;
49029;SDS011;43337;52.070;4.508;2022-12-20T12:08:18;9.48;;;5.28;;
49029;SDS011;43337;52.070;4.508;2022-12-20T12:13:26;9.90;;;5.45;;
49029;SDS011;43337;52.070;4.508;2022-12-20T12:18:45;11.77;;;5.43;;
49029;SDS011;43337;52.070;4.508;2022-12-20T12:21:24;19.08;;;8.95;;
49029;SDS011;43337;52.070;4.508;2022-12-20T12:26:44;11.77;;;6.53;;
49029;SDS011;43337;52.070;4.508;2022-12-20T12:29:13;23.85;;;11.32;;
49029;SDS011;43337;52.070;4.508;2022-12-20T12:31:42;11.13;;;7.13;;
49029;SDS011;43337;52.070;4.508;2022-12-20T12:34:26;12.77;;;6.95;;
49029;SDS011;43337;52.070;4.508;2022-12-20T12:37:10;10.80;;;6.40;;
49029;SDS011;43337;52.070;4.508;2022-12-20T12:42:13;11.32;;;5.32;;
49029;SDS011;43337;52.070;4.508;2022-12-20T12:47:47;11.88;;;6.07;;
49029;SDS011;43337;52.070;4.508;2022-12-20T12:50:36;10.83;;;6.90;;
49029;SDS011;43337;52.070;4.508;2022-12-20T12:53:07;14.00;;;7.00;;
49029;SDS011;43337;52.070;4.508;2022-12-20T13:03:16;18.63;;;7.57;;
49029;SDS011;43337;52.070;4.508;2022-12-20T13:06:40;14.13;;;7.38;;
49029;SDS011;43337;52.070;4.508;2022-12-20T13:11:39;12.70;;;6.78;;
49029;SDS011;43337;52.070;4.508;2022-12-20T13:19:50;11.77;;;6.63;;
49029;SDS011;43337;52.070;4.508;2022-12-20T13:22:19;11.43;;;6.35;;
49029;SDS011;43337;52.070;4.508;2022-12-20T13:24:58;14.13;;;6.53;;
49029;SDS011;43337;52.070;4.508;2022-12-20T13:27:31;10.18;;;6.40;;
49029;SDS011;43337;52.070;4.508;2022-12-20T13:38:00;14.57;;;5.70;;
49029;SDS011;43337;52.070;4.508;2022-12-20T13:40:53;11.10;;;6.25;;
49029;SDS011;43337;52.070;4.508;2022-12-20T13:45:47;10.10;;;6.03;;
49029;SDS011;43337;52.070;4.508;2022-12-20T13:48:19;12.13;;;6.55;;
49029;SDS011;43337;52.070;4.508;2022-12-20T13:50:50;12.55;;;6.50;;
49029;SDS011;43337;52.070;4.508;2022-12-20T13:53:18;14.40;;;6.97;;
49029;SDS011;43337;52.070;4.508;2022-12-20T13:55:46;12.90;;;7.03;;
49029;SDS011;43337;52.070;4.508;2022-12-20T13:58:16;12.75;;;7.65;;
49029;SDS011;43337;52.070;4.508;2022-12-20T14:00:45;12.50;;;7.15;;
49029;SDS011;43337;52.070;4.508;2022-12-20T14:03:14;13.65;;;7.40;;
49029;SDS011;43337;52.070;4.508;2022-12-20T14:05:46;15.27;;;7.30;;
49029;SDS011;43337;52.070;4.508;2022-12-20T14:08:14;16.50;;;7.57;;
49029;SDS011;43337;52.070;4.508;2022-12-20T14:10:41;16.65;;;7.13;;
49029;SDS011;43337;52.070;4.508;2022-12-20T14:13:23;14.48;;;7.82;;
49029;SDS011;43337;52.070;4.508;2022-12-20T14:15:50;14.82;;;7.80;;
49029;SDS011;43337;52.070;4.508;2022-12-20T14:20:44;16.25;;;7.80;;
49029;SDS011;43337;52.070;4.508;2022-12-20T14:23:24;14.50;;;8.48;;
49029;SDS011;43337;52.070;4.508;2022-12-20T14:26:00;11.60;;;7.70;;
49029;SDS011;43337;52.070;4.508;2022-12-20T14:30:56;18.10;;;10.32;;
49029;SDS011;43337;52.070;4.508;2022-12-20T14:38:39;15.05;;;8.23;;
49029;SDS011;43337;52.070;4.508;2022-12-20T14:43:56;18.52;;;9.07;;
49029;SDS011;43337;52.070;4.508;2022-12-20T14:46:25;16.40;;;9.75;;
49029;SDS011;43337;52.070;4.508;2022-12-20T14:51:37;15.50;;;9.70;;
49029;SDS011;43337;52.070;4.508;2022-12-20T14:54:03;16.52;;;9.20;;
49029;SDS011;43337;52.070;4.508;2022-12-20T14:56:29;16.55;;;9.52;;
49029;SDS011;43337;52.070;4.508;2022-12-20T14:59:14;14.98;;;9.20;;
49029;SDS011;43337;52.070;4.508;2022-12-20T15:01:42;15.88;;;9.38;;
49029;SDS011;43337;52.070;4.508;2022-12-20T15:06:57;17.90;;;9.43;;
49029;SDS011;43337;52.070;4.508;2022-12-20T15:09:23;16.80;;;9.35;;
49029;SDS011;43337;52.070;4.508;2022-12-20T15:11:49;15.63;;;9.38;;
49029;SDS011;43337;52.070;4.508;2022-12-20T15:16:47;26.95;;;15.48;;
49029;SDS011;43337;52.070;4.508;2022-12-20T15:19:13;22.75;;;11.98;;
49029;SDS011;43337;52.070;4.508;2022-12-20T15:21:39;18.92;;;10.00;;
49029;SDS011;43337;52.070;4.508;2022-12-20T15:24:17;18.25;;;9.90;;
49029;SDS011;43337;52.070;4.508;2022-12-20T15:26:46;21.60;;;10.25;;
49029;SDS011;43337;52.070;4.508;2022-12-20T15:29:16;19.02;;;10.30;;
49029;SDS011;43337;52.070;4.508;2022-12-20T15:31:43;17.52;;;9.20;;
49029;SDS011;43337;52.070;4.508;2022-12-20T15:34:31;23.88;;;10.45;;
49029;SDS011;43337;52.070;4.508;2022-12-20T15:37:00;18.45;;;9.90;;
49029;SDS011;43337;52.070;4.508;2022-12-20T15:39:26;19.15;;;10.98;;
49029;SDS011;43337;52.070;4.508;2022-12-20T15:41:53;18.15;;;9.90;;
49029;SDS011;43337;52.070;4.508;2022-12-20T15:44:22;19.33;;;10.20;;
49029;SDS011;43337;52.070;4.508;2022-12-20T15:46:49;19.20;;;10.07;;
49029;SDS011;43337;52.070;4.508;2022-12-20T15:49:20;15.98;;;9.77;;
49029;SDS011;43337;52.070;4.508;2022-12-20T15:51:49;18.10;;;10.73;;
49029;SDS011;43337;52.070;4.508;2022-12-20T15:56:43;16.88;;;9.63;;
49029;SDS011;43337;52.070;4.508;2022-12-20T15:59:09;18.92;;;10.15;;
49029;SDS011;43337;52.070;4.508;2022-12-20T16:01:37;18.25;;;10.20;;
49029;SDS011;43337;52.070;4.508;2022-12-20T16:04:03;16.30;;;9.90;;
49029;SDS011;43337;52.070;4.508;2022-12-20T16:06:30;19.10;;;10.75;;
49029;SDS011;43337;52.070;4.508;2022-12-20T16:08:56;19.08;;;10.48;;
49029;SDS011;43337;52.070;4.508;2022-12-20T16:11:24;18.10;;;10.65;;
49029;SDS011;43337;52.070;4.508;2022-12-20T16:13:53;22.17;;;11.35;;
49029;SDS011;43337;52.070;4.508;2022-12-20T16:16:22;19.63;;;10.55;;
49029;SDS011;43337;52.070;4.508;2022-12-20T16:18:52;19.73;;;10.80;;
49029;SDS011;43337;52.070;4.508;2022-12-20T16:21:19;21.10;;;11.25;;
49029;SDS011;43337;52.070;4.508;2022-12-20T16:23:49;21.25;;;10.85;;
49029;SDS011;43337;52.070;4.508;2022-12-20T16:26:15;20.73;;;10.40;;
49029;SDS011;43337;52.070;4.508;2022-12-20T16:28:43;25.73;;;11.70;;
49029;SDS011;43337;52.070;4.508;2022-12-20T16:31:10;20.13;;;10.15;;
49029;SDS011;43337;52.070;4.508;2022-12-20T16:33:44;18.75;;;10.70;;
49029;SDS011;43337;52.070;4.508;2022-12-20T16:36:12;19.90;;;10.00;;
49029;SDS011;43337;52.070;4.508;2022-12-20T16:38:38;22.27;;;10.77;;
49029;SDS011;43337;52.070;4.508;2022-12-20T16:41:11;18.90;;;10.07;;
49029;SDS011;43337;52.070;4.508;2022-12-20T16:43:41;21.65;;;10.85;;
49029;SDS011;43337;52.070;4.508;2022-12-20T16:46:11;18.30;;;10.15;;
49029;SDS011;43337;52.070;4.508;2022-12-20T16:48:39;23.17;;;10.77;;
49029;SDS011;43337;52.070;4.508;2022-12-20T16:51:39;23.35;;;11.20;;
49029;SDS011;43337;52.070;4.508;2022-12-20T16:54:05;21.30;;;11.55;;
49029;SDS011;43337;52.070;4.508;2022-12-20T16:56:36;19.35;;;10.95;;
49029;SDS011;43337;52.070;4.508;2022-12-20T16:59:01;20.20;;;11.23;;